createdAt,value
2022-10-22T00:02:11.524Z,13.00
2022-10-22T00:07:03.185Z,12.97
2022-10-22T00:11:54.897Z,12.95
2022-10-22T00:16:46.742Z,12.93
2022-10-22T00:21:38.454Z,12.93
2022-10-22T00:26:30.210Z,12.93
2022-10-22T00:31:21.944Z,12.92
2022-10-22T00:36:14.896Z,12.89
2022-10-22T00:41:06.807Z,12.92
2022-10-22T00:45:58.489Z,12.93
2022-10-22T00:50:56.964Z,12.92
2022-10-22T00:55:53.065Z,12.92
2022-10-22T01:00:45.152Z,12.89
2022-10-22T01:05:56.133Z,12.86
2022-10-22T01:10:50.744Z,12.84
2022-10-22T01:16:07.503Z,12.83
2022-10-22T01:20:59.094Z,12.84
2022-10-22T01:26:17.740Z,12.87
2022-10-22T01:31:13.718Z,12.87
2022-10-22T01:36:05.789Z,12.87
2022-10-22T01:40:58.652Z,12.89
2022-10-22T01:45:54.617Z,12.89
2022-10-22T01:51:11.296Z,12.90
2022-10-22T01:56:24.680Z,12.88
2022-10-22T02:01:34.879Z,12.86
2022-10-22T02:06:30.696Z,12.85
2022-10-22T02:11:22.864Z,12.83
2022-10-22T02:16:21.055Z,12.85
2022-10-22T02:21:13.059Z,12.82
2022-10-22T02:26:15.107Z,12.81
2022-10-22T02:31:15.270Z,12.77
2022-10-22T02:36:08.456Z,12.74
2022-10-22T02:41:00.681Z,12.72
2022-10-22T02:45:52.595Z,12.71
2022-10-22T02:50:44.401Z,12.68
2022-10-22T02:55:36.117Z,12.70
2022-10-22T03:00:28.440Z,12.65
2022-10-22T03:05:20.185Z,12.64
2022-10-22T03:10:12.001Z,12.58
2022-10-22T03:15:04.569Z,12.51
2022-10-22T03:19:56.400Z,12.45
2022-10-22T03:24:53.567Z,12.40
2022-10-22T03:29:47.022Z,12.37
2022-10-22T03:34:38.749Z,12.33
2022-10-22T03:39:33.646Z,12.25
2022-10-22T03:44:26.230Z,12.21
2022-10-22T03:49:17.885Z,12.12
2022-10-22T03:54:09.523Z,12.06
2022-10-22T03:59:03.036Z,11.97
2022-10-22T04:03:55.437Z,11.91
2022-10-22T04:08:47.216Z,11.85
2022-10-22T04:13:38.992Z,11.76
2022-10-22T04:18:30.710Z,11.68
2022-10-22T04:23:22.578Z,11.54
2022-10-22T04:28:14.273Z,11.51
2022-10-22T04:33:06.088Z,11.45
2022-10-22T04:37:57.790Z,11.37
2022-10-22T04:42:49.710Z,11.29
2022-10-22T04:47:41.875Z,11.21
2022-10-22T04:52:33.977Z,11.14
2022-10-22T04:57:30.301Z,11.07
2022-10-22T05:02:22.208Z,11.02
2022-10-22T05:07:14.464Z,10.97
2022-10-22T05:12:06.534Z,10.93
2022-10-22T05:16:58.511Z,10.91
2022-10-22T05:21:51.600Z,10.90
2022-10-22T05:26:43.292Z,10.87
2022-10-22T05:31:35.334Z,10.85
2022-10-22T05:36:27.773Z,10.81
2022-10-22T05:41:25.196Z,10.75
2022-10-22T05:46:22.509Z,10.72
2022-10-22T05:51:14.724Z,10.65
2022-10-22T05:56:09.300Z,10.62
2022-10-22T06:01:05.505Z,10.59
2022-10-22T06:05:57.240Z,10.51
2022-10-22T06:10:49.028Z,10.47
2022-10-22T06:15:40.640Z,10.39
2022-10-22T06:20:34.576Z,10.38
2022-10-22T06:25:26.282Z,10.34
2022-10-22T06:30:18.035Z,10.31
2022-10-22T06:35:09.723Z,10.31
2022-10-22T06:40:01.348Z,10.29
2022-10-22T06:44:53.093Z,10.31
2022-10-22T06:49:44.780Z,10.32
2022-10-22T06:54:36.559Z,10.33
2022-10-22T06:59:28.232Z,10.32
2022-10-22T07:04:19.978Z,10.34
2022-10-22T07:09:11.690Z,10.33
2022-10-22T07:14:03.640Z,10.35
2022-10-22T07:18:55.241Z,10.36
2022-10-22T07:23:47.311Z,10.36
2022-10-22T07:28:41.022Z,10.39
2022-10-22T07:33:32.828Z,10.43
2022-10-22T07:38:24.601Z,10.48
2022-10-22T07:43:16.276Z,10.51
2022-10-22T07:48:08.042Z,10.61
2022-10-22T07:53:00.016Z,10.84
2022-10-22T07:57:51.749Z,11.09
2022-10-22T08:02:43.577Z,11.21
2022-10-22T08:07:35.800Z,11.48
2022-10-22T08:12:27.587Z,12.04
2022-10-22T08:17:19.150Z,12.33
2022-10-22T08:22:10.892Z,12.43
2022-10-22T08:27:02.633Z,12.63
2022-10-22T08:31:54.524Z,13.05
2022-10-22T08:36:46.687Z,13.58
2022-10-22T08:41:53.986Z,14.11
2022-10-22T08:47:01.363Z,14.73
2022-10-22T08:51:53.613Z,15.27
2022-10-22T08:56:53.728Z,15.82
2022-10-22T09:01:48.122Z,16.23
2022-10-22T09:06:44.428Z,16.45
2022-10-22T09:11:40.181Z,16.82
2022-10-22T09:16:53.307Z,17.23
2022-10-22T09:22:08.201Z,17.66
2022-10-22T09:27:00.248Z,18.05
2022-10-22T09:31:51.867Z,18.31
2022-10-22T09:36:43.424Z,18.57
2022-10-22T09:41:35.436Z,18.83
2022-10-22T09:46:39.821Z,18.95
2022-10-22T09:52:21.589Z,19.04
2022-10-22T09:57:22.059Z,19.28
2022-10-22T10:02:37.018Z,19.37
2022-10-22T10:07:34.516Z,19.00
2022-10-22T10:12:43.586Z,18.49
2022-10-22T10:18:20.231Z,17.89
2022-10-22T10:23:26.739Z,17.45
2022-10-22T10:28:36.742Z,17.23
2022-10-22T10:33:32.959Z,17.09
2022-10-22T10:38:54.309Z,17.37
2022-10-22T10:44:09.901Z,17.68
2022-10-22T10:49:25.919Z,17.59
2022-10-22T10:54:40.973Z,17.44
2022-10-22T10:59:54.797Z,17.31
2022-10-22T11:04:49.390Z,17.10
2022-10-22T11:09:55.194Z,16.81
2022-10-22T11:14:59.676Z,16.75
2022-10-22T11:19:59.132Z,17.00
2022-10-22T11:25:12.449Z,17.20
2022-10-22T11:30:11.617Z,17.39
2022-10-22T11:35:07.276Z,17.33
2022-10-22T11:40:02.381Z,17.31
2022-10-22T11:45:15.988Z,17.28
2022-10-22T11:50:22.795Z,17.04
2022-10-22T11:55:52.169Z,16.83
2022-10-22T12:00:48.748Z,16.70
2022-10-22T12:05:40.426Z,16.76
2022-10-22T12:11:00.508Z,17.09
2022-10-22T12:15:57.623Z,17.07
2022-10-22T12:20:53.963Z,16.99
2022-10-22T12:25:45.557Z,16.80
2022-10-22T12:30:37.375Z,16.65
2022-10-22T12:35:32.768Z,16.58
2022-10-22T12:40:26.050Z,16.51
2022-10-22T12:45:18.544Z,16.39
2022-10-22T12:50:18.156Z,16.37
2022-10-22T12:55:19.705Z,16.37
2022-10-22T13:00:32.446Z,16.38
2022-10-22T13:05:27.852Z,16.39
2022-10-22T13:10:19.601Z,16.45
2022-10-22T13:15:34.701Z,16.47
2022-10-22T13:20:26.302Z,16.49
2022-10-22T13:25:21.033Z,16.42
2022-10-22T13:30:33.044Z,16.32
2022-10-22T13:35:28.371Z,16.33
2022-10-22T13:40:20.508Z,16.27
2022-10-22T13:45:13.904Z,16.27
2022-10-22T13:50:13.903Z,16.23
2022-10-22T13:55:14.419Z,16.34
2022-10-22T14:00:06.833Z,16.44
2022-10-22T14:05:03.226Z,16.44
2022-10-22T14:09:54.868Z,16.40
2022-10-22T14:14:46.662Z,16.34
2022-10-22T14:19:38.381Z,16.32
2022-10-22T14:24:29.958Z,16.29
2022-10-22T14:29:21.605Z,16.27
2022-10-22T14:34:15.654Z,16.23
2022-10-22T14:39:07.287Z,16.18
2022-10-22T14:44:00.038Z,16.15
2022-10-22T14:48:52.118Z,16.10
2022-10-22T14:53:44.635Z,16.06
2022-10-22T14:58:36.271Z,16.04
2022-10-22T15:03:27.921Z,16.03
2022-10-22T15:08:21.065Z,16.03
2022-10-22T15:13:13.026Z,16.00
2022-10-22T15:18:04.817Z,15.97
2022-10-22T15:22:56.870Z,16.00
2022-10-22T15:27:50.383Z,16.00
2022-10-22T15:32:43.642Z,15.92
2022-10-22T15:37:37.899Z,15.84
2022-10-22T15:42:29.742Z,15.83
2022-10-22T15:47:22.803Z,15.84
2022-10-22T15:52:14.819Z,15.82
2022-10-22T15:57:08.791Z,15.78
2022-10-22T16:02:00.387Z,15.69
2022-10-22T16:06:53.772Z,15.63
2022-10-22T16:11:46.900Z,15.51
2022-10-22T16:16:43.476Z,15.39
2022-10-22T16:21:35.221Z,15.29
2022-10-22T16:26:26.825Z,15.17
2022-10-22T16:31:21.934Z,15.11
2022-10-22T16:36:18.071Z,14.99
2022-10-22T16:41:18.606Z,14.88
2022-10-22T16:46:11.234Z,14.76
2022-10-22T16:51:07.936Z,14.67
2022-10-22T16:55:59.620Z,14.55
2022-10-22T17:00:51.396Z,14.49
2022-10-22T17:05:43.541Z,14.42
2022-10-22T17:10:37.371Z,14.34
2022-10-22T17:15:29.060Z,14.26
2022-10-22T17:20:21.496Z,14.21
2022-10-22T17:25:15.785Z,14.18
2022-10-22T17:30:08.798Z,14.15
2022-10-22T17:35:01.694Z,14.13
2022-10-22T17:39:53.424Z,14.08
2022-10-22T17:44:44.964Z,14.06
2022-10-22T17:49:36.700Z,14.02
2022-10-22T17:54:28.432Z,13.98
2022-10-22T17:59:20.341Z,13.96
2022-10-22T18:04:15.932Z,13.95
2022-10-22T18:09:10.673Z,13.99
2022-10-22T18:14:04.852Z,13.97
2022-10-22T18:18:57.620Z,13.95
2022-10-22T18:23:49.396Z,13.90
2022-10-22T18:28:41.261Z,13.85
2022-10-22T18:33:33.383Z,13.79
2022-10-22T18:38:25.236Z,13.76
2022-10-22T18:43:17.883Z,13.77
2022-10-22T18:48:09.792Z,13.73
2022-10-22T18:53:01.449Z,13.73
2022-10-22T18:57:53.285Z,13.75
2022-10-22T19:02:45.120Z,13.73
2022-10-22T19:07:36.839Z,13.74
2022-10-22T19:12:28.519Z,13.74
2022-10-22T19:17:20.178Z,13.74
2022-10-22T19:22:12.317Z,13.70
2022-10-22T19:27:04.473Z,13.66
2022-10-22T19:31:56.280Z,13.61
2022-10-22T19:36:48.738Z,13.60
2022-10-22T19:41:40.978Z,13.58
2022-10-22T19:46:33.233Z,13.54
2022-10-22T19:51:28.065Z,13.53
2022-10-22T19:56:21.014Z,13.51
2022-10-22T20:01:15.830Z,13.48
2022-10-22T20:06:09.810Z,13.46
2022-10-22T20:11:02.526Z,13.47
2022-10-22T20:15:54.200Z,13.47
2022-10-22T20:20:46.209Z,13.47
2022-10-22T20:25:43.136Z,13.49
2022-10-22T20:30:35.565Z,13.50
2022-10-22T20:35:27.729Z,13.49
2022-10-22T20:40:20.371Z,13.52
2022-10-22T20:45:12.642Z,13.52
2022-10-22T20:50:05.117Z,13.52
2022-10-22T20:54:56.996Z,13.54
2022-10-22T20:59:48.926Z,13.58
2022-10-22T21:04:42.787Z,13.59
2022-10-22T21:09:37.479Z,13.63
2022-10-22T21:14:30.202Z,13.63
2022-10-22T21:19:23.208Z,13.66
2022-10-22T21:24:15.136Z,13.68
2022-10-22T21:29:07.581Z,13.70
2022-10-22T21:33:59.575Z,13.71
2022-10-22T21:38:52.214Z,13.72
2022-10-22T21:43:45.389Z,13.74
2022-10-22T21:48:38.047Z,13.75
2022-10-22T21:53:29.659Z,13.76
2022-10-22T21:58:21.388Z,13.75
2022-10-22T22:03:12.936Z,13.73
2022-10-22T22:08:04.794Z,13.73
2022-10-22T22:12:56.702Z,13.72
2022-10-22T22:17:48.427Z,13.70
2022-10-22T22:22:40.250Z,13.69
2022-10-22T22:27:32.194Z,13.73
2022-10-22T22:32:23.896Z,13.71
2022-10-22T22:37:15.521Z,13.71
2022-10-22T22:42:07.097Z,13.69
2022-10-22T22:46:58.760Z,13.67
2022-10-22T22:51:50.467Z,13.68
2022-10-22T22:56:42.116Z,13.69
2022-10-22T23:01:36.856Z,13.69
2022-10-22T23:06:33.108Z,13.69
2022-10-22T23:11:26.775Z,13.69
2022-10-22T23:16:20.923Z,13.68
2022-10-22T23:21:14.608Z,13.69
2022-10-22T23:26:06.232Z,13.69
2022-10-22T23:30:58.006Z,13.68
2022-10-22T23:35:49.738Z,13.68
2022-10-22T23:40:41.457Z,13.68
2022-10-22T23:45:36.704Z,13.66
2022-10-22T23:50:28.734Z,13.66
2022-10-22T23:55:20.522Z,13.65
